Time;durP1;ratioP1;P1;durP2;ratioP2;P2;SDS_P1;SDS_P2;PMS_P1;PMS_P2;Temp;Humidity;BMP_temperature;BMP_pressure;BME280_temperature;BME280_humidity;BME280_pressure;Samples;Min_cycle;Max_cycle;Signal;HPM_P1;HPM_P2
2022/07/28 18:34:00;;;;;;;1.67;0.70;;;22.90;46.50;;;;;;5086930;27;1233776;-63
2022/07/28 18:36:26;;;;;;;2.40;0.88;;;22.80;47.90;;;;;;5106916;28;20028;-63
2022/07/28 18:38:51;;;;;;;1.08;0.73;;;22.60;48.10;;;;;;5103010;28;20136;-67
2022/07/28 18:41:18;;;;;;;1.67;0.60;;;22.60;48.50;;;;;;5088777;28;20491;-65
2022/07/28 18:43:44;;;;;;;1.90;0.80;;;22.50;48.80;;;;;;5107241;28;20472;-67
2022/07/28 18:46:12;;;;;;;1.95;0.90;;;22.40;49.00;;;;;;5106171;28;20089;-61
2022/07/28 18:48:37;;;;;;;0.60;0.60;;;22.30;49.30;;;;;;5105832;28;20096;-61
2022/07/28 18:51:03;;;;;;;1.80;0.60;;;22.20;49.80;;;;;;5104459;28;20417;-63
2022/07/28 18:53:29;;;;;;;2.35;0.80;;;22.10;50.10;;;;;;5087801;28;20493;-61
2022/07/28 18:55:54;;;;;;;2.22;0.60;;;22.00;50.30;;;;;;5106735;28;20019;-62
2022/07/28 18:58:20;;;;;;;3.90;1.00;;;21.90;50.50;;;;;;5102847;28;20031;-71
2022/07/28 19:00:46;;;;;;;1.85;0.60;;;21.80;50.80;;;;;;5105904;28;20099;-60
2022/07/28 19:03:11;;;;;;;2.83;0.63;;;21.70;51.00;;;;;;5087972;28;20490;-60
2022/07/28 19:05:37;;;;;;;1.10;0.55;;;21.70;51.30;;;;;;5106757;28;20023;-61
2022/07/28 19:08:04;;;;;;;1.23;0.68;;;21.60;51.50;;;;;;5102983;28;20078;-60
2022/07/28 19:10:30;;;;;;;2.47;0.60;;;21.50;52.00;;;;;;5106496;28;20025;-58
2022/07/28 19:12:56;;;;;;;1.90;0.73;;;21.50;52.20;;;;;;5104129;28;20027;-61
2022/07/28 19:15:22;;;;;;;1.10;0.50;;;21.50;52.50;;;;;;5106156;28;20046;-66
2022/07/28 19:17:48;;;;;;;1.92;0.73;;;21.40;52.60;;;;;;5087976;28;20384;-60
2022/07/28 19:20:13;;;;;;;2.08;0.90;;;21.30;52.60;;;;;;5084270;28;20547;-60
2022/07/28 19:22:42;;;;;;;1.13;0.60;;;21.20;52.80;;;;;;5086252;28;20034;-61
2022/07/28 19:25:08;;;;;;;1.23;0.73;;;21.10;53.00;;;;;;5097054;28;21046;-60
2022/07/28 19:27:37;;;;;;;2.00;0.57;;;21.00;53.20;;;;;;5087993;28;20178;-57
2022/07/28 19:30:07;;;;;;;1.83;1.00;;;21.00;53.30;;;;;;5105257;28;20019;-59
2022/07/28 19:32:33;;;;;;;1.35;0.90;;;20.90;53.60;;;;;;5106174;28;20027;-59
2022/07/28 19:34:59;;;;;;;2.15;0.90;;;20.80;53.70;;;;;;5103264;28;20100;-60
2022/07/28 19:37:26;;;;;;;5.05;1.13;;;20.70;53.80;;;;;;5104133;28;20128;-59
2022/07/28 19:39:52;;;;;;;1.98;0.73;;;20.70;54.00;;;;;;5105016;28;20380;-56
2022/07/28 19:42:17;;;;;;;3.28;0.73;;;20.60;54.30;;;;;;5104113;28;20127;-58
2022/07/28 19:44:44;;;;;;;1.95;0.70;;;20.60;54.60;;;;;;5079251;28;20031;-58
2022/07/28 19:47:10;;;;;;;0.70;0.60;;;20.50;54.80;;;;;;5079708;28;20032;-58
2022/07/28 19:49:38;;;;;;;2.33;1.08;;;20.40;55.10;;;;;;5088418;28;20074;-57
2022/07/28 19:52:06;;;;;;;2.45;1.15;;;20.30;55.90;;;;;;5087252;28;20042;-58
2022/07/28 19:54:34;;;;;;;1.85;0.80;;;20.20;55.40;;;;;;5086077;28;20028;-60
2022/07/28 19:57:00;;;;;;;0.70;0.65;;;20.20;55.70;;;;;;5089633;28;20047;-61
2022/07/28 19:59:25;;;;;;;2.42;1.10;;;20.10;56.10;;;;;;5091060;28;20559;-64
2022/07/28 20:01:51;;;;;;;1.33;0.60;;;20.00;56.30;;;;;;5091251;28;20025;-66
2022/07/28 20:04:17;;;;;;;2.72;0.70;;;20.00;56.60;;;;;;5081830;28;20029;-69
2022/07/28 20:06:42;;;;;;;2.13;0.50;;;19.90;56.60;;;;;;5071475;28;20023;-63
2022/07/28 20:09:08;;;;;;;3.45;0.90;;;19.90;56.70;;;;;;5072669;28;20036;-61
2022/07/28 20:11:40;;;;;;;3.10;0.90;;;19.90;56.80;;;;;;5077622;28;20028;-60
2022/07/28 20:14:06;;;;;;;1.67;0.82;;;19.80;57.00;;;;;;5091027;28;20043;-59
2022/07/28 20:16:31;;;;;;;2.17;0.85;;;19.80;57.30;;;;;;5088928;28;20015;-58
2022/07/28 20:18:57;;;;;;;1.42;0.90;;;19.80;57.40;;;;;;5084248;28;20444;-61
2022/07/28 20:21:24;;;;;;;2.22;0.93;;;19.70;57.50;;;;;;5075175;28;20017;-56
2022/07/28 20:23:52;;;;;;;1.15;0.73;;;19.70;57.70;;;;;;5071443;28;20029;-56
2022/07/28 20:26:20;;;;;;;1.42;0.85;;;19.60;57.80;;;;;;5074804;28;20027;-57
2022/07/28 20:28:49;;;;;;;0.95;0.75;;;19.70;58.10;;;;;;5079384;28;20453;-55
2022/07/28 20:31:15;;;;;;;1.00;0.73;;;19.60;58.20;;;;;;5090927;28;20020;-57
2022/07/28 20:33:41;;;;;;;1.45;0.80;;;19.60;58.40;;;;;;5092318;28;20044;-58
2022/07/28 20:36:06;;;;;;;1.23;0.90;;;19.60;58.50;;;;;;5074225;28;20027;-55
2022/07/28 20:38:32;;;;;;;1.50;0.85;;;19.50;58.70;;;;;;5087750;28;20498;-52
2022/07/28 20:40:58;;;;;;;2.70;1.00;;;19.50;58.90;;;;;;5091769;28;20022;-56
2022/07/28 20:43:23;;;;;;;1.45;0.75;;;19.50;59.10;;;;;;5087149;28;20468;-55
2022/07/28 20:45:49;;;;;;;2.10;0.95;;;19.40;59.20;;;;;;5086504;28;20437;-54
2022/07/28 20:48:15;;;;;;;1.00;0.82;;;19.40;59.40;;;;;;5086018;28;20104;-53
2022/07/28 20:50:42;;;;;;;3.00;1.27;;;19.30;59.60;;;;;;5056161;28;20032;-53
2022/07/28 20:53:08;;;;;;;2.05;1.00;;;19.20;59.90;;;;;;5072296;28;20384;-55
2022/07/28 20:55:33;;;;;;;1.02;0.77;;;19.20;60.10;;;;;;5089234;28;20016;-59
2022/07/28 20:57:59;;;;;;;2.40;1.00;;;19.20;60.30;;;;;;5091702;28;20028;-55
2022/07/28 21:00:24;;;;;;;3.33;1.10;;;19.20;60.60;;;;;;5073359;28;20020;-53
2022/07/28 21:02:50;;;;;;;2.65;0.93;;;19.10;60.80;;;;;;5073472;28;20052;-57
2022/07/28 21:05:16;;;;;;;4.38;1.33;;;19.10;60.90;;;;;;5090380;28;20024;-56
2022/07/28 21:07:44;;;;;;;1.75;1.10;;;19.10;61.00;;;;;;5071076;28;20028;-57
2022/07/28 21:10:10;;;;;;;1.80;1.10;;;19.00;61.20;;;;;;5069717;28;20017;-57
2022/07/28 21:12:36;;;;;;;1.05;0.90;;;19.00;61.60;;;;;;5091246;28;20043;-55
2022/07/28 21:15:06;;;;;;;2.15;1.10;;;18.90;61.70;;;;;;5072527;28;20028;-56
2022/07/28 21:17:33;;;;;;;1.20;0.90;;;18.90;61.90;;;;;;5089297;28;20051;-59
2022/07/28 21:19:58;;;;;;;4.13;1.15;;;18.80;62.20;;;;;;5087980;28;20035;-55
2022/07/28 21:22:24;;;;;;;2.03;1.10;;;18.80;62.20;;;;;;5088639;28;20036;-56
2022/07/28 21:24:51;;;;;;;2.38;1.35;;;18.70;62.40;;;;;;5087422;28;20046;-56
2022/07/28 21:27:17;;;;;;;2.38;1.10;;;18.70;62.70;;;;;;5090707;28;20069;-58
2022/07/28 21:29:45;;;;;;;3.42;1.10;;;18.60;62.90;;;;;;5090609;28;20027;-56
2022/07/28 21:32:10;;;;;;;1.42;1.10;;;18.60;63.00;;;;;;5091454;28;20054;-57
2022/07/28 21:34:36;;;;;;;3.13;1.15;;;18.50;63.20;;;;;;5090850;28;20465;-62
2022/07/28 21:37:05;;;;;;;1.77;1.13;;;18.50;64.10;;;;;;5091052;28;20024;-58
2022/07/28 21:39:32;;;;;;;1.33;1.08;;;18.40;63.80;;;;;;5091304;28;20178;-58
2022/07/28 21:41:58;;;;;;;1.85;1.00;;;18.40;64.00;;;;;;5072028;28;20522;-58
2022/07/28 21:44:24;;;;;;;3.17;1.30;;;18.30;64.30;;;;;;5091275;28;20110;-56
2022/07/28 21:46:49;;;;;;;2.38;1.65;;;18.30;64.80;;;;;;5090663;28;20024;-58
2022/07/28 21:49:15;;;;;;;1.77;1.10;;;18.20;64.70;;;;;;5090569;28;20066;-58
2022/07/28 21:51:41;;;;;;;2.40;1.00;;;18.20;65.20;;;;;;5090897;28;20024;-58
2022/07/28 21:54:07;;;;;;;1.67;0.98;;;18.20;65.20;;;;;;5090816;28;20036;-57
2022/07/28 21:56:33;;;;;;;2.13;1.27;;;18.20;66.10;;;;;;5090521;28;20028;-67
2022/07/28 21:59:00;;;;;;;3.47;1.23;;;18.10;66.20;;;;;;5090723;28;20024;-63
2022/07/28 22:01:27;;;;;;;2.22;1.20;;;18.10;65.60;;;;;;5090955;28;20027;-57
2022/07/28 22:03:53;;;;;;;3.25;1.08;;;18.10;65.50;;;;;;5077210;28;20078;-60
2022/07/28 22:06:19;;;;;;;3.28;1.23;;;18.10;65.70;;;;;;5073266;28;20099;-63
2022/07/28 22:08:44;;;;;;;2.35;1.23;;;18.10;65.80;;;;;;5072701;28;20044;-72
2022/07/28 22:11:10;;;;;;;4.45;1.33;;;18.10;66.50;;;;;;5090310;28;20063;-68
2022/07/28 22:13:36;;;;;;;2.50;0.90;;;18.10;66.10;;;;;;5090941;28;20051;-71
2022/07/28 22:16:01;;;;;;;1.73;1.00;;;18.10;66.20;;;;;;5072576;28;20050;-68
2022/07/28 22:18:27;;;;;;;1.65;0.90;;;18.10;66.40;;;;;;5090533;28;20433;-74
2022/07/28 22:20:55;;;;;;;1.38;0.82;;;18.10;66.60;;;;;;5089268;28;20090;-73
2022/07/28 22:23:21;;;;;;;2.13;0.90;;;18.00;66.80;;;;;;5090518;28;20024;-72
2022/07/28 22:25:46;;;;;;;4.50;1.30;;;18.00;66.80;;;;;;5090142;28;20047;-57
2022/07/28 22:28:12;;;;;;;1.80;1.10;;;18.00;67.20;;;;;;5072462;28;20392;-62
2022/07/28 22:30:37;;;;;;;1.73;1.10;;;17.90;67.30;;;;;;5089557;28;20027;-56
2022/07/28 22:33:03;;;;;;;2.53;1.30;;;17.90;67.50;;;;;;5071911;28;20040;-60
2022/07/28 22:35:29;;;;;;;2.53;1.10;;;17.80;68.00;;;;;;5090279;28;20020;-58
2022/07/28 22:37:54;;;;;;;2.38;1.00;;;17.80;68.20;;;;;;5089326;28;20071;-58
2022/07/28 22:40:20;;;;;;;4.82;1.02;;;17.70;68.20;;;;;;5090407;28;20024;-62
2022/07/28 22:42:47;;;;;;;3.58;1.35;;;17.60;68.60;;;;;;5090376;28;20028;-58
2022/07/28 22:45:13;;;;;;;2.47;1.05;;;17.60;68.80;;;;;;5089796;28;20062;-62
2022/07/28 22:47:39;;;;;;;4.05;1.10;;;17.60;69.00;;;;;;5072281;28;20032;-63
2022/07/28 22:50:05;;;;;;;2.38;1.17;;;17.50;68.90;;;;;;5090361;28;20556;-57
2022/07/28 22:52:31;;;;;;;1.98;0.90;;;17.50;69.10;;;;;;5089472;28;20039;-56
2022/07/28 22:54:57;;;;;;;2.70;1.10;;;17.50;69.50;;;;;;5090160;28;20372;-59
2022/07/28 22:57:24;;;;;;;3.13;1.05;;;17.50;69.60;;;;;;5090116;28;20121;-63
2022/07/28 22:59:50;;;;;;;1.75;1.20;;;17.50;69.80;;;;;;5089238;28;20020;-56
2022/07/28 23:02:16;;;;;;;2.10;1.20;;;17.40;70.00;;;;;;5090005;28;20111;-56
2022/07/28 23:04:41;;;;;;;2.97;1.23;;;17.40;70.20;;;;;;5090307;28;20031;-58
2022/07/28 23:07:14;;;;;;;2.13;1.20;;;17.40;70.30;;;;;;5089361;28;20099;-59
2022/07/28 23:09:40;;;;;;;3.90;1.10;;;17.40;70.30;;;;;;5090108;28;20431;-60
2022/07/28 23:12:07;;;;;;;1.33;0.98;;;17.40;70.50;;;;;;5089906;28;20032;-60
2022/07/28 23:14:32;;;;;;;1.48;1.10;;;17.40;70.80;;;;;;5089474;28;20031;-58
2022/07/28 23:16:58;;;;;;;2.67;1.58;;;17.30;70.90;;;;;;5089738;28;20016;-66
2022/07/28 23:19:24;;;;;;;2.50;1.02;;;17.30;71.00;;;;;;5091619;28;20131;-64
2022/07/28 23:21:50;;;;;;;2.20;1.27;;;17.30;71.10;;;;;;5093146;28;20036;-53
2022/07/28 23:24:15;;;;;;;1.70;1.05;;;17.30;71.20;;;;;;5093823;28;20028;-55
2022/07/28 23:26:41;;;;;;;3.25;1.02;;;17.30;71.30;;;;;;5093799;28;20441;-60
2022/07/28 23:29:06;;;;;;;1.90;0.95;;;17.30;71.50;;;;;;5092794;28;20039;-62
2022/07/28 23:31:32;;;;;;;2.22;1.08;;;17.30;71.50;;;;;;5093729;28;20109;-62
2022/07/28 23:33:58;;;;;;;2.38;1.20;;;17.30;71.50;;;;;;5092515;28;20408;-57
2022/07/28 23:36:25;;;;;;;2.95;1.40;;;17.30;71.80;;;;;;5093658;28;20052;-56
2022/07/28 23:38:50;;;;;;;2.70;1.08;;;17.20;72.00;;;;;;5093250;28;20024;-60
2022/07/28 23:41:16;;;;;;;2.35;1.10;;;17.30;72.10;;;;;;5092958;28;20023;-57
2022/07/28 23:43:42;;;;;;;2.03;1.08;;;17.20;72.50;;;;;;5090794;28;20024;-51
2022/07/28 23:46:08;;;;;;;1.77;1.20;;;17.20;72.60;;;;;;5093233;28;20049;-57
2022/07/28 23:48:34;;;;;;;1.90;0.90;;;17.10;72.90;;;;;;5074668;28;20134;-58
2022/07/28 23:51:00;;;;;;;1.98;1.23;;;17.10;73.20;;;;;;5093198;28;20020;-67
2022/07/28 23:53:26;;;;;;;2.28;1.27;;;17.00;73.50;;;;;;5093240;28;20112;-67
2022/07/28 23:55:53;;;;;;;2.85;1.02;;;17.00;73.70;;;;;;5092526;28;20095;-65
2022/07/28 23:58:19;;;;;;;3.03;1.15;;;17.00;73.90;;;;;;5093355;28;20024;-63
